Terminal Aerodrome Forecast
Issued by NWS

Home | Current Version | Previous Version | Text Only | Print | Product List | Glossary On
Versions: 1 2 3 4 5 6 7 8 9 10 11 12 13
206
FTUS43 KLSX 222320
TAFUIN
TAF
KUIN 222320Z 2300/2324 16004KT P6SM SCT150
     FM231500 22006KT P6SM SCT150=

USA.gov is the U.S. government's official web portal to all federal, state and local government web resources and services.